sensor_id;sensor_type;location;lat;lon;timestamp;temperature;humidity
21085;DHT22;34247;50.064;19.970;2023-03-04T00:00:43;19.80;25.20
21085;DHT22;34247;50.064;19.970;2023-03-04T00:01:50;19.80;25.30
21085;DHT22;34247;50.064;19.970;2023-03-04T00:02:54;19.80;25.20
21085;DHT22;34247;50.064;19.970;2023-03-04T00:03:59;19.80;25.20
21085;DHT22;34247;50.064;19.970;2023-03-04T00:05:03;19.70;25.20
21085;DHT22;34247;50.064;19.970;2023-03-04T00:06:12;19.80;25.30
21085;DHT22;34247;50.064;19.970;2023-03-04T00:07:16;19.90;25.10
21085;DHT22;34247;50.064;19.970;2023-03-04T00:08:21;19.80;25.10
21085;DHT22;34247;50.064;19.970;2023-03-04T00:09:28;19.80;25.10
21085;DHT22;34247;50.064;19.970;2023-03-04T00:10:33;19.80;25.10
21085;DHT22;34247;50.064;19.970;2023-03-04T00:11:36;19.80;25.20
21085;DHT22;34247;50.064;19.970;2023-03-04T00:12:41;19.90;25.10
21085;DHT22;34247;50.064;19.970;2023-03-04T00:13:49;19.80;25.10
21085;DHT22;34247;50.064;19.970;2023-03-04T00:14:53;19.80;25.20
21085;DHT22;34247;50.064;19.970;2023-03-04T00:15:59;19.70;25.10
21085;DHT22;34247;50.064;19.970;2023-03-04T00:17:29;19.80;25.20
21085;DHT22;34247;50.064;19.970;2023-03-04T00:18:33;19.70;25.20
21085;DHT22;34247;50.064;19.970;2023-03-04T00:19:37;19.70;25.30
21085;DHT22;34247;50.064;19.970;2023-03-04T00:20:41;19.60;25.40
21085;DHT22;34247;50.064;19.970;2023-03-04T00:21:45;19.60;25.50
21085;DHT22;34247;50.064;19.970;2023-03-04T00:22:49;19.60;25.50
21085;DHT22;34247;50.064;19.970;2023-03-04T00:23:53;19.70;25.50
21085;DHT22;34247;50.064;19.970;2023-03-04T00:24:58;19.70;25.40
21085;DHT22;34247;50.064;19.970;2023-03-04T00:26:02;19.80;25.40
21085;DHT22;34247;50.064;19.970;2023-03-04T00:27:06;19.80;25.30
21085;DHT22;34247;50.064;19.970;2023-03-04T00:28:13;19.70;25.30
21085;DHT22;34247;50.064;19.970;2023-03-04T00:29:17;19.70;25.40
21085;DHT22;34247;50.064;19.970;2023-03-04T00:30:22;19.60;25.40
21085;DHT22;34247;50.064;19.970;2023-03-04T00:31:33;19.70;25.50
21085;DHT22;34247;50.064;19.970;2023-03-04T00:32:37;19.60;25.50
21085;DHT22;34247;50.064;19.970;2023-03-04T00:33:44;19.60;26.10
21085;DHT22;34247;50.064;19.970;2023-03-04T00:34:48;19.60;25.50
21085;DHT22;34247;50.064;19.970;2023-03-04T00:35:52;19.60;25.50
21085;DHT22;34247;50.064;19.970;2023-03-04T00:37:02;19.60;25.50
21085;DHT22;34247;50.064;19.970;2023-03-04T00:38:16;19.50;25.60
21085;DHT22;34247;50.064;19.970;2023-03-04T00:39:20;19.60;25.60
21085;DHT22;34247;50.064;19.970;2023-03-04T00:40:24;19.70;25.50
21085;DHT22;34247;50.064;19.970;2023-03-04T00:41:28;19.60;25.50
21085;DHT22;34247;50.064;19.970;2023-03-04T00:42:32;19.60;25.50
21085;DHT22;34247;50.064;19.970;2023-03-04T00:43:36;19.70;25.60
21085;DHT22;34247;50.064;19.970;2023-03-04T00:44:39;19.70;25.40
21085;DHT22;34247;50.064;19.970;2023-03-04T00:45:44;19.70;25.40
21085;DHT22;34247;50.064;19.970;2023-03-04T00:46:48;19.80;25.30
21085;DHT22;34247;50.064;19.970;2023-03-04T00:47:53;19.90;25.30
21085;DHT22;34247;50.064;19.970;2023-03-04T00:48:57;19.90;25.10
21085;DHT22;34247;50.064;19.970;2023-03-04T00:50:01;19.90;25.20
21085;DHT22;34247;50.064;19.970;2023-03-04T00:51:15;19.90;25.80
21085;DHT22;34247;50.064;19.970;2023-03-04T00:52:23;19.90;25.30
21085;DHT22;34247;50.064;19.970;2023-03-04T00:53:27;19.90;25.20
21085;DHT22;34247;50.064;19.970;2023-03-04T00:54:31;19.90;25.20
21085;DHT22;34247;50.064;19.970;2023-03-04T00:55:35;19.90;25.20
21085;DHT22;34247;50.064;19.970;2023-03-04T00:56:40;19.80;25.20
21085;DHT22;34247;50.064;19.970;2023-03-04T00:57:44;19.80;25.30
21085;DHT22;34247;50.064;19.970;2023-03-04T00:58:50;19.80;25.30
21085;DHT22;34247;50.064;19.970;2023-03-04T00:59:53;19.70;25.30
21085;DHT22;34247;50.064;19.970;2023-03-04T01:00:57;19.80;25.40
21085;DHT22;34247;50.064;19.970;2023-03-04T01:02:01;19.70;25.40
21085;DHT22;34247;50.064;19.970;2023-03-04T01:03:08;19.80;25.40
21085;DHT22;34247;50.064;19.970;2023-03-04T01:04:16;19.80;25.30
21085;DHT22;34247;50.064;19.970;2023-03-04T01:05:20;19.70;25.30
21085;DHT22;34247;50.064;19.970;2023-03-04T01:06:25;19.70;25.40
21085;DHT22;34247;50.064;19.970;2023-03-04T01:07:29;19.70;25.40
21085;DHT22;34247;50.064;19.970;2023-03-04T01:08:33;19.70;25.40
21085;DHT22;34247;50.064;19.970;2023-03-04T01:09:37;19.60;25.50
21085;DHT22;34247;50.064;19.970;2023-03-04T01:10:41;19.70;25.50
21085;DHT22;34247;50.064;19.970;2023-03-04T01:11:45;19.70;25.60
21085;DHT22;34247;50.064;19.970;2023-03-04T01:12:48;19.70;25.50
21085;DHT22;34247;50.064;19.970;2023-03-04T01:13:52;19.70;25.40
21085;DHT22;34247;50.064;19.970;2023-03-04T01:14:56;19.70;25.40
21085;DHT22;34247;50.064;19.970;2023-03-04T01:16:00;19.70;25.50
21085;DHT22;34247;50.064;19.970;2023-03-04T01:17:10;19.70;25.50
21085;DHT22;34247;50.064;19.970;2023-03-04T01:18:18;19.90;25.40
21085;DHT22;34247;50.064;19.970;2023-03-04T01:19:22;20.00;25.30
21085;DHT22;34247;50.064;19.970;2023-03-04T01:20:25;20.00;25.20
21085;DHT22;34247;50.064;19.970;2023-03-04T01:21:29;19.90;25.20
21085;DHT22;34247;50.064;19.970;2023-03-04T01:22:33;19.90;25.30
21085;DHT22;34247;50.064;19.970;2023-03-04T01:23:40;19.80;25.30
21085;DHT22;34247;50.064;19.970;2023-03-04T01:24:44;19.70;25.40
21085;DHT22;34247;50.064;19.970;2023-03-04T01:25:48;19.80;25.50
21085;DHT22;34247;50.064;19.970;2023-03-04T01:26:56;19.80;25.40
21085;DHT22;34247;50.064;19.970;2023-03-04T01:28:02;19.80;25.40
21085;DHT22;34247;50.064;19.970;2023-03-04T01:29:19;20.00;25.40
21085;DHT22;34247;50.064;19.970;2023-03-04T01:30:23;20.00;25.30
21085;DHT22;34247;50.064;19.970;2023-03-04T01:31:36;19.90;25.30
21085;DHT22;34247;50.064;19.970;2023-03-04T01:32:40;19.80;25.30
21085;DHT22;34247;50.064;19.970;2023-03-04T01:33:43;19.80;25.30
21085;DHT22;34247;50.064;19.970;2023-03-04T01:34:47;19.80;25.30
21085;DHT22;34247;50.064;19.970;2023-03-04T01:35:51;19.80;25.40
21085;DHT22;34247;50.064;19.970;2023-03-04T01:36:54;19.80;25.40
21085;DHT22;34247;50.064;19.970;2023-03-04T01:37:58;19.80;25.40
21085;DHT22;34247;50.064;19.970;2023-03-04T01:39:07;19.90;25.40
21085;DHT22;34247;50.064;19.970;2023-03-04T01:40:12;19.90;25.30
21085;DHT22;34247;50.064;19.970;2023-03-04T01:41:28;19.90;25.30
21085;DHT22;34247;50.064;19.970;2023-03-04T01:42:39;19.90;25.30
21085;DHT22;34247;50.064;19.970;2023-03-04T01:43:48;20.00;25.20
21085;DHT22;34247;50.064;19.970;2023-03-04T01:44:52;19.90;25.20
21085;DHT22;34247;50.064;19.970;2023-03-04T01:45:57;19.80;25.20
21085;DHT22;34247;50.064;19.970;2023-03-04T01:47:01;19.80;25.40
21085;DHT22;34247;50.064;19.970;2023-03-04T01:48:34;19.80;25.30
21085;DHT22;34247;50.064;19.970;2023-03-04T01:49:49;19.80;25.30
21085;DHT22;34247;50.064;19.970;2023-03-04T01:50:57;19.80;25.40
21085;DHT22;34247;50.064;19.970;2023-03-04T01:52:03;19.70;25.40
21085;DHT22;34247;50.064;19.970;2023-03-04T01:53:20;19.70;25.40
21085;DHT22;34247;50.064;19.970;2023-03-04T01:54:27;19.80;25.40
21085;DHT22;34247;50.064;19.970;2023-03-04T01:55:32;19.80;25.50
21085;DHT22;34247;50.064;19.970;2023-03-04T01:56:38;19.90;25.40
21085;DHT22;34247;50.064;19.970;2023-03-04T01:57:44;19.80;25.40
21085;DHT22;34247;50.064;19.970;2023-03-04T01:59:17;19.70;25.40
21085;DHT22;34247;50.064;19.970;2023-03-04T02:00:31;19.70;25.50
21085;DHT22;34247;50.064;19.970;2023-03-04T02:01:43;19.80;25.50
21085;DHT22;34247;50.064;19.970;2023-03-04T02:03:01;19.70;25.40
21085;DHT22;34247;50.064;19.970;2023-03-04T02:04:20;19.90;25.40
21085;DHT22;34247;50.064;19.970;2023-03-04T02:05:28;19.80;25.30
21085;DHT22;34247;50.064;19.970;2023-03-04T02:06:40;19.90;25.40
21085;DHT22;34247;50.064;19.970;2023-03-04T02:07:45;19.90;25.20
21085;DHT22;34247;50.064;19.970;2023-03-04T02:08:49;20.00;25.30
21085;DHT22;34247;50.064;19.970;2023-03-04T02:09:54;20.00;25.20
21085;DHT22;34247;50.064;19.970;2023-03-04T02:10:57;20.00;25.10
21085;DHT22;34247;50.064;19.970;2023-03-04T02:12:01;20.00;25.10
21085;DHT22;34247;50.064;19.970;2023-03-04T02:13:27;20.10;25.10
21085;DHT22;34247;50.064;19.970;2023-03-04T02:14:31;20.10;24.90
21085;DHT22;34247;50.064;19.970;2023-03-04T02:15:35;20.00;25.00
21085;DHT22;34247;50.064;19.970;2023-03-04T02:16:39;19.90;25.00
21085;DHT22;34247;50.064;19.970;2023-03-04T02:17:43;20.00;25.20
21085;DHT22;34247;50.064;19.970;2023-03-04T02:18:57;20.00;25.10
21085;DHT22;34247;50.064;19.970;2023-03-04T02:20:37;19.90;25.10
21085;DHT22;34247;50.064;19.970;2023-03-04T02:21:55;20.00;25.20
21085;DHT22;34247;50.064;19.970;2023-03-04T02:23:19;19.90;25.20
21085;DHT22;34247;50.064;19.970;2023-03-04T02:24:59;19.90;25.30
21085;DHT22;34247;50.064;19.970;2023-03-04T02:26:22;19.80;25.20
21085;DHT22;34247;50.064;19.970;2023-03-04T02:27:31;19.70;25.30
21085;DHT22;34247;50.064;19.970;2023-03-04T02:28:35;19.70;25.40
21085;DHT22;34247;50.064;19.970;2023-03-04T02:29:41;19.80;25.40
21085;DHT22;34247;50.064;19.970;2023-03-04T02:30:45;19.90;25.40
21085;DHT22;34247;50.064;19.970;2023-03-04T02:31:53;19.80;25.70
21085;DHT22;34247;50.064;19.970;2023-03-04T02:33:00;19.80;25.20
21085;DHT22;34247;50.064;19.970;2023-03-04T02:34:14;19.80;25.30
21085;DHT22;34247;50.064;19.970;2023-03-04T02:35:27;19.80;25.30
21085;DHT22;34247;50.064;19.970;2023-03-04T02:36:31;19.80;25.30
21085;DHT22;34247;50.064;19.970;2023-03-04T02:37:37;19.90;25.30
21085;DHT22;34247;50.064;19.970;2023-03-04T02:38:40;20.00;25.20
21085;DHT22;34247;50.064;19.970;2023-03-04T02:39:46;19.90;25.10
21085;DHT22;34247;50.064;19.970;2023-03-04T02:40:53;20.00;25.10
21085;DHT22;34247;50.064;19.970;2023-03-04T02:42:00;20.10;24.90
21085;DHT22;34247;50.064;19.970;2023-03-04T02:43:15;20.00;25.00
21085;DHT22;34247;50.064;19.970;2023-03-04T02:44:27;20.00;25.00
21085;DHT22;34247;50.064;19.970;2023-03-04T02:46:44;20.00;24.90
21085;DHT22;34247;50.064;19.970;2023-03-04T02:47:49;20.00;25.00
21085;DHT22;34247;50.064;19.970;2023-03-04T02:48:53;20.00;25.10
21085;DHT22;34247;50.064;19.970;2023-03-04T02:49:57;20.00;25.00
21085;DHT22;34247;50.064;19.970;2023-03-04T02:51:01;20.00;25.00
21085;DHT22;34247;50.064;19.970;2023-03-04T02:52:15;20.10;25.00
21085;DHT22;34247;50.064;19.970;2023-03-04T02:53:21;20.20;24.90
21085;DHT22;34247;50.064;19.970;2023-03-04T02:54:28;20.10;24.90
21085;DHT22;34247;50.064;19.970;2023-03-04T02:55:32;20.00;24.90
21085;DHT22;34247;50.064;19.970;2023-03-04T02:56:36;20.00;25.00
21085;DHT22;34247;50.064;19.970;2023-03-04T02:57:39;20.00;25.00
21085;DHT22;34247;50.064;19.970;2023-03-04T02:58:47;20.00;25.00
21085;DHT22;34247;50.064;19.970;2023-03-04T02:59:51;20.00;25.00
21085;DHT22;34247;50.064;19.970;2023-03-04T03:00:56;20.10;24.90
21085;DHT22;34247;50.064;19.970;2023-03-04T03:02:01;20.00;24.90
21085;DHT22;34247;50.064;19.970;2023-03-04T03:03:11;20.00;25.00
21085;DHT22;34247;50.064;19.970;2023-03-04T03:04:19;20.00;24.90
21085;DHT22;34247;50.064;19.970;2023-03-04T03:05:26;20.00;24.90
21085;DHT22;34247;50.064;19.970;2023-03-04T03:06:32;20.00;24.90
21085;DHT22;34247;50.064;19.970;2023-03-04T03:07:36;20.00;24.90
21085;DHT22;34247;50.064;19.970;2023-03-04T03:08:40;20.00;24.90
21085;DHT22;34247;50.064;19.970;2023-03-04T03:09:45;19.90;24.90
21085;DHT22;34247;50.064;19.970;2023-03-04T03:10:49;19.90;25.00
21085;DHT22;34247;50.064;19.970;2023-03-04T03:11:52;19.90;25.10
21085;DHT22;34247;50.064;19.970;2023-03-04T03:12:56;20.00;25.00
21085;DHT22;34247;50.064;19.970;2023-03-04T03:14:02;20.10;24.90
21085;DHT22;34247;50.064;19.970;2023-03-04T03:15:10;20.10;24.80
21085;DHT22;34247;50.064;19.970;2023-03-04T03:16:15;20.00;24.80
21085;DHT22;34247;50.064;19.970;2023-03-04T03:17:18;19.80;24.90
21085;DHT22;34247;50.064;19.970;2023-03-04T03:18:22;19.80;25.00
21085;DHT22;34247;50.064;19.970;2023-03-04T03:19:26;19.90;25.40
21085;DHT22;34247;50.064;19.970;2023-03-04T03:20:29;19.90;25.00
21085;DHT22;34247;50.064;19.970;2023-03-04T03:21:33;19.80;25.00
21085;DHT22;34247;50.064;19.970;2023-03-04T03:22:38;19.80;25.10
21085;DHT22;34247;50.064;19.970;2023-03-04T03:23:42;19.90;25.10
21085;DHT22;34247;50.064;19.970;2023-03-04T03:24:46;19.80;25.00
21085;DHT22;34247;50.064;19.970;2023-03-04T03:25:50;19.80;25.10
21085;DHT22;34247;50.064;19.970;2023-03-04T03:26:54;19.90;25.10
21085;DHT22;34247;50.064;19.970;2023-03-04T03:27:58;19.90;25.00
21085;DHT22;34247;50.064;19.970;2023-03-04T03:29:02;19.90;24.90
21085;DHT22;34247;50.064;19.970;2023-03-04T03:30:12;20.20;24.90
21085;DHT22;34247;50.064;19.970;2023-03-04T03:31:17;20.10;24.70
21085;DHT22;34247;50.064;19.970;2023-03-04T03:32:22;20.10;24.70
21085;DHT22;34247;50.064;19.970;2023-03-04T03:33:26;20.20;24.70
21085;DHT22;34247;50.064;19.970;2023-03-04T03:34:31;20.10;24.70
21085;DHT22;34247;50.064;19.970;2023-03-04T03:35:35;20.10;24.70
21085;DHT22;34247;50.064;19.970;2023-03-04T03:36:42;20.00;24.70
21085;DHT22;34247;50.064;19.970;2023-03-04T03:37:45;20.00;25.30
21085;DHT22;34247;50.064;19.970;2023-03-04T03:38:51;19.90;24.80
21085;DHT22;34247;50.064;19.970;2023-03-04T03:39:56;20.00;24.80
21085;DHT22;34247;50.064;19.970;2023-03-04T03:41:10;20.00;24.80
21085;DHT22;34247;50.064;19.970;2023-03-04T03:42:14;19.80;24.80
21085;DHT22;34247;50.064;19.970;2023-03-04T03:43:19;19.80;24.90
21085;DHT22;34247;50.064;19.970;2023-03-04T03:44:23;19.80;25.00
21085;DHT22;34247;50.064;19.970;2023-03-04T03:45:33;19.80;25.00
21085;DHT22;34247;50.064;19.970;2023-03-04T03:46:37;19.70;25.00
21085;DHT22;34247;50.064;19.970;2023-03-04T03:47:41;19.80;25.10
21085;DHT22;34247;50.064;19.970;2023-03-04T03:48:45;20.00;25.00
21085;DHT22;34247;50.064;19.970;2023-03-04T03:49:49;20.00;24.90
21085;DHT22;34247;50.064;19.970;2023-03-04T03:50:53;20.00;24.80
21085;DHT22;34247;50.064;19.970;2023-03-04T03:51:57;19.90;24.70
21085;DHT22;34247;50.064;19.970;2023-03-04T03:53:02;19.90;24.90
21085;DHT22;34247;50.064;19.970;2023-03-04T03:54:09;19.80;25.00
21085;DHT22;34247;50.064;19.970;2023-03-04T03:55:13;19.80;25.00
21085;DHT22;34247;50.064;19.970;2023-03-04T03:56:17;19.90;25.00
21085;DHT22;34247;50.064;19.970;2023-03-04T03:57:21;19.90;24.90
21085;DHT22;34247;50.064;19.970;2023-03-04T03:58:28;19.90;24.90
21085;DHT22;34247;50.064;19.970;2023-03-04T03:59:32;19.90;24.90
21085;DHT22;34247;50.064;19.970;2023-03-04T04:00:36;19.90;24.90
21085;DHT22;34247;50.064;19.970;2023-03-04T04:01:46;19.90;24.90
21085;DHT22;34247;50.064;19.970;2023-03-04T04:02:50;20.00;24.80
21085;DHT22;34247;50.064;19.970;2023-03-04T04:03:57;20.00;24.70
21085;DHT22;34247;50.064;19.970;2023-03-04T04:05:07;20.00;24.70
21085;DHT22;34247;50.064;19.970;2023-03-04T04:06:12;19.90;25.30
21085;DHT22;34247;50.064;19.970;2023-03-04T04:07:16;20.00;24.80
21085;DHT22;34247;50.064;19.970;2023-03-04T04:08:21;19.90;24.80
21085;DHT22;34247;50.064;19.970;2023-03-04T04:09:24;19.90;24.80
21085;DHT22;34247;50.064;19.970;2023-03-04T04:10:28;20.00;24.80
21085;DHT22;34247;50.064;19.970;2023-03-04T04:11:32;20.00;24.70
21085;DHT22;34247;50.064;19.970;2023-03-04T07:00:45;20.00;24.40
21085;DHT22;34247;50.064;19.970;2023-03-04T07:01:49;20.00;24.30
21085;DHT22;34247;50.064;19.970;2023-03-04T07:02:57;20.20;24.10
21085;DHT22;34247;50.064;19.970;2023-03-04T07:04:01;20.10;24.10
21085;DHT22;34247;50.064;19.970;2023-03-04T07:05:10;20.10;24.10
21085;DHT22;34247;50.064;19.970;2023-03-04T07:06:16;20.10;24.10
21085;DHT22;34247;50.064;19.970;2023-03-04T07:07:22;20.20;24.10
21085;DHT22;34247;50.064;19.970;2023-03-04T07:08:29;20.10;24.20
21085;DHT22;34247;50.064;19.970;2023-03-04T07:09:32;20.20;24.20
21085;DHT22;34247;50.064;19.970;2023-03-04T07:10:36;20.30;24.10
21085;DHT22;34247;50.064;19.970;2023-03-04T07:11:40;20.10;24.10
21085;DHT22;34247;50.064;19.970;2023-03-04T07:12:44;20.00;24.20
21085;DHT22;34247;50.064;19.970;2023-03-04T07:13:49;20.00;24.30
21085;DHT22;34247;50.064;19.970;2023-03-04T07:14:53;20.00;24.20
21085;DHT22;34247;50.064;19.970;2023-03-04T07:15:59;20.00;24.20
21085;DHT22;34247;50.064;19.970;2023-03-04T07:17:02;20.00;24.20
21085;DHT22;34247;50.064;19.970;2023-03-04T07:18:12;20.00;24.70
21085;DHT22;34247;50.064;19.970;2023-03-04T07:19:16;20.10;24.10
21085;DHT22;34247;50.064;19.970;2023-03-04T07:20:20;20.00;24.20
21085;DHT22;34247;50.064;19.970;2023-03-04T07:21:24;19.90;24.20
21085;DHT22;34247;50.064;19.970;2023-03-04T07:22:28;20.00;24.10
21085;DHT22;34247;50.064;19.970;2023-03-04T07:23:32;19.90;24.10
21085;DHT22;34247;50.064;19.970;2023-03-04T07:24:37;20.00;24.00
21085;DHT22;34247;50.064;19.970;2023-03-04T07:25:41;20.00;23.90
21085;DHT22;34247;50.064;19.970;2023-03-04T07:26:45;20.00;24.00
21085;DHT22;34247;50.064;19.970;2023-03-04T07:27:48;20.00;24.40
21085;DHT22;34247;50.064;19.970;2023-03-04T07:28:52;20.00;23.90
21085;DHT22;34247;50.064;19.970;2023-03-04T07:29:57;19.90;23.90
21085;DHT22;34247;50.064;19.970;2023-03-04T07:31:28;20.00;23.90
21085;DHT22;34247;50.064;19.970;2023-03-04T07:32:34;20.00;23.80
21085;DHT22;34247;50.064;19.970;2023-03-04T07:33:38;19.90;23.90
21085;DHT22;34247;50.064;19.970;2023-03-04T07:34:42;20.00;23.90
21085;DHT22;34247;50.064;19.970;2023-03-04T07:35:47;20.00;23.80
21085;DHT22;34247;50.064;19.970;2023-03-04T07:36:51;20.30;23.70
21085;DHT22;34247;50.064;19.970;2023-03-04T07:37:55;20.20;23.50
21085;DHT22;34247;50.064;19.970;2023-03-04T07:38:59;20.10;23.50
21085;DHT22;34247;50.064;19.970;2023-03-04T07:40:03;20.10;23.60
21085;DHT22;34247;50.064;19.970;2023-03-04T07:41:14;20.20;23.50
21085;DHT22;34247;50.064;19.970;2023-03-04T07:42:19;20.20;23.50
21085;DHT22;34247;50.064;19.970;2023-03-04T07:43:24;20.10;23.70
21085;DHT22;34247;50.064;19.970;2023-03-04T07:44:29;20.00;23.70
21085;DHT22;34247;50.064;19.970;2023-03-04T07:45:33;20.10;23.70
21085;DHT22;34247;50.064;19.970;2023-03-04T07:46:37;20.10;23.80
21085;DHT22;34247;50.064;19.970;2023-03-04T07:47:40;20.10;23.80
21085;DHT22;34247;50.064;19.970;2023-03-04T07:48:45;20.20;23.70
21085;DHT22;34247;50.064;19.970;2023-03-04T07:49:49;20.20;23.70
21085;DHT22;34247;50.064;19.970;2023-03-04T07:52:14;20.00;23.80
21085;DHT22;34247;50.064;19.970;2023-03-04T07:53:19;20.20;23.90
21085;DHT22;34247;50.064;19.970;2023-03-04T07:54:22;20.20;23.80
21085;DHT22;34247;50.064;19.970;2023-03-04T07:55:29;20.10;23.80
21085;DHT22;34247;50.064;19.970;2023-03-04T07:56:34;20.00;23.90
21085;DHT22;34247;50.064;19.970;2023-03-04T07:57:39;20.00;24.00
21085;DHT22;34247;50.064;19.970;2023-03-04T07:58:44;20.10;23.90
21085;DHT22;34247;50.064;19.970;2023-03-04T07:59:48;20.10;23.90
21085;DHT22;34247;50.064;19.970;2023-03-04T08:00:52;20.10;23.90
21085;DHT22;34247;50.064;19.970;2023-03-04T08:01:56;20.00;24.00
21085;DHT22;34247;50.064;19.970;2023-03-04T08:03:03;20.00;24.10
21085;DHT22;34247;50.064;19.970;2023-03-04T08:04:10;20.00;24.20
21085;DHT22;34247;50.064;19.970;2023-03-04T08:05:14;20.00;24.20
21085;DHT22;34247;50.064;19.970;2023-03-04T08:06:20;20.00;24.20
21085;DHT22;34247;50.064;19.970;2023-03-04T08:07:28;19.90;24.20
21085;DHT22;34247;50.064;19.970;2023-03-04T08:08:32;19.90;24.20
21085;DHT22;34247;50.064;19.970;2023-03-04T08:09:36;19.80;24.30
21085;DHT22;34247;50.064;19.970;2023-03-04T08:10:40;19.80;24.30
21085;DHT22;34247;50.064;19.970;2023-03-04T08:11:47;19.80;24.40
21085;DHT22;34247;50.064;19.970;2023-03-04T08:12:51;19.80;24.50
21085;DHT22;34247;50.064;19.970;2023-03-04T08:13:56;19.90;24.50
21085;DHT22;34247;50.064;19.970;2023-03-04T08:15:02;19.80;24.50
21085;DHT22;34247;50.064;19.970;2023-03-04T08:16:14;19.80;24.50
21085;DHT22;34247;50.064;19.970;2023-03-04T08:17:20;19.90;24.50
21085;DHT22;34247;50.064;19.970;2023-03-04T08:18:27;19.90;24.50
21085;DHT22;34247;50.064;19.970;2023-03-04T08:19:31;20.10;24.40
21085;DHT22;34247;50.064;19.970;2023-03-04T08:20:35;20.10;24.20
21085;DHT22;34247;50.064;19.970;2023-03-04T08:21:42;20.10;24.20
21085;DHT22;34247;50.064;19.970;2023-03-04T08:22:46;20.10;24.20
21085;DHT22;34247;50.064;19.970;2023-03-04T08:23:50;20.20;24.20
21085;DHT22;34247;50.064;19.970;2023-03-04T08:24:55;20.20;24.20
21085;DHT22;34247;50.064;19.970;2023-03-04T08:25:59;20.00;24.10
21085;DHT22;34247;50.064;19.970;2023-03-04T08:27:12;20.00;24.30
21085;DHT22;34247;50.064;19.970;2023-03-04T08:28:16;20.00;24.40
21085;DHT22;34247;50.064;19.970;2023-03-04T08:29:22;19.90;24.30
21085;DHT22;34247;50.064;19.970;2023-03-04T08:30:28;19.90;24.40
21085;DHT22;34247;50.064;19.970;2023-03-04T08:31:32;19.90;24.40
21085;DHT22;34247;50.064;19.970;2023-03-04T08:32:38;19.80;24.40
21085;DHT22;34247;50.064;19.970;2023-03-04T08:33:42;19.80;24.50
21085;DHT22;34247;50.064;19.970;2023-03-04T08:34:46;19.90;24.60
21085;DHT22;34247;50.064;19.970;2023-03-04T08:35:51;19.90;24.50
21085;DHT22;34247;50.064;19.970;2023-03-04T08:36:58;19.90;24.40
21085;DHT22;34247;50.064;19.970;2023-03-04T08:38:03;19.90;24.50
21085;DHT22;34247;50.064;19.970;2023-03-04T08:39:17;19.90;24.50
21085;DHT22;34247;50.064;19.970;2023-03-04T08:40:26;19.90;24.50
21085;DHT22;34247;50.064;19.970;2023-03-04T08:41:31;19.90;24.40
21085;DHT22;34247;50.064;19.970;2023-03-04T08:42:35;19.90;24.40
21085;DHT22;34247;50.064;19.970;2023-03-04T08:43:39;19.90;24.40
21085;DHT22;34247;50.064;19.970;2023-03-04T08:44:42;19.90;24.90
21085;DHT22;34247;50.064;19.970;2023-03-04T08:45:46;19.90;24.40
21085;DHT22;34247;50.064;19.970;2023-03-04T08:46:50;20.00;24.30
21085;DHT22;34247;50.064;19.970;2023-03-04T08:47:53;20.00;24.30
21085;DHT22;34247;50.064;19.970;2023-03-04T08:48:57;20.00;24.30
21085;DHT22;34247;50.064;19.970;2023-03-04T08:50:04;20.10;24.20
21085;DHT22;34247;50.064;19.970;2023-03-04T08:51:14;20.10;24.20
21085;DHT22;34247;50.064;19.970;2023-03-04T08:52:20;20.00;24.20
21085;DHT22;34247;50.064;19.970;2023-03-04T08:53:24;20.10;24.20
21085;DHT22;34247;50.064;19.970;2023-03-04T08:54:28;20.10;24.10
21085;DHT22;34247;50.064;19.970;2023-03-04T08:55:32;20.20;23.80
21085;DHT22;34247;50.064;19.970;2023-03-04T08:56:36;20.20;23.70
21085;DHT22;34247;50.064;19.970;2023-03-04T08:57:40;20.10;23.70
21085;DHT22;34247;50.064;19.970;2023-03-04T08:58:45;20.20;23.80
21085;DHT22;34247;50.064;19.970;2023-03-04T08:59:48;20.20;23.80
21085;DHT22;34247;50.064;19.970;2023-03-04T09:00:52;20.00;23.80
21085;DHT22;34247;50.064;19.970;2023-03-04T09:01:56;20.00;23.90
21085;DHT22;34247;50.064;19.970;2023-03-04T09:03:00;20.00;24.00
21085;DHT22;34247;50.064;19.970;2023-03-04T09:04:10;20.00;24.00
21085;DHT22;34247;50.064;19.970;2023-03-04T09:05:16;20.10;24.00
21085;DHT22;34247;50.064;19.970;2023-03-04T09:06:20;20.10;23.90
21085;DHT22;34247;50.064;19.970;2023-03-04T09:07:25;20.10;23.90
21085;DHT22;34247;50.064;19.970;2023-03-04T09:08:29;20.00;23.90
21085;DHT22;34247;50.064;19.970;2023-03-04T09:09:34;20.00;24.00
21085;DHT22;34247;50.064;19.970;2023-03-04T09:10:43;20.00;24.00
21085;DHT22;34247;50.064;19.970;2023-03-04T09:11:47;19.90;24.00
21085;DHT22;34247;50.064;19.970;2023-03-04T09:12:51;19.90;24.10
21085;DHT22;34247;50.064;19.970;2023-03-04T09:13:55;20.00;24.00
21085;DHT22;34247;50.064;19.970;2023-03-04T09:14:59;19.90;24.00
21085;DHT22;34247;50.064;19.970;2023-03-04T09:16:16;19.90;24.10
21085;DHT22;34247;50.064;19.970;2023-03-04T09:17:21;19.80;24.10
21085;DHT22;34247;50.064;19.970;2023-03-04T09:18:28;19.90;24.10
21085;DHT22;34247;50.064;19.970;2023-03-04T09:19:32;20.00;24.00
21085;DHT22;34247;50.064;19.970;2023-03-04T09:20:36;20.00;23.90
21085;DHT22;34247;50.064;19.970;2023-03-04T09:21:42;20.20;23.80
21085;DHT22;34247;50.064;19.970;2023-03-04T09:22:46;20.10;23.80
21085;DHT22;34247;50.064;19.970;2023-03-04T09:23:50;20.10;23.70
21085;DHT22;34247;50.064;19.970;2023-03-04T09:24:54;20.10;24.30
21085;DHT22;34247;50.064;19.970;2023-03-04T09:26:22;20.00;23.80
21085;DHT22;34247;50.064;19.970;2023-03-04T09:27:28;20.00;23.90
21085;DHT22;34247;50.064;19.970;2023-03-04T09:28:34;20.00;23.90
21085;DHT22;34247;50.064;19.970;2023-03-04T09:29:38;20.00;23.90
21085;DHT22;34247;50.064;19.970;2023-03-04T09:30:42;20.20;23.80
21085;DHT22;34247;50.064;19.970;2023-03-04T09:31:47;20.00;23.70
21085;DHT22;34247;50.064;19.970;2023-03-04T09:32:53;20.00;24.00
21085;DHT22;34247;50.064;19.970;2023-03-04T09:33:58;20.00;23.80
21085;DHT22;34247;50.064;19.970;2023-03-04T09:35:03;19.90;23.80
21085;DHT22;34247;50.064;19.970;2023-03-04T09:36:11;19.90;23.90
21085;DHT22;34247;50.064;19.970;2023-03-04T09:37:18;19.90;24.00
21085;DHT22;34247;50.064;19.970;2023-03-04T09:38:22;19.90;23.90
21085;DHT22;34247;50.064;19.970;2023-03-04T09:39:27;19.90;23.90
21085;DHT22;34247;50.064;19.970;2023-03-04T09:40:32;19.90;23.90
21085;DHT22;34247;50.064;19.970;2023-03-04T09:41:46;19.90;24.00
21085;DHT22;34247;50.064;19.970;2023-03-04T09:43:03;20.00;23.80